Time;durP1;ratioP1;P1;durP2;ratioP2;P2;SDS_P1;SDS_P2;PMS_P1;PMS_P2;Temp;Humidity;BMP_temperature;BMP_pressure;BME280_temperature;BME280_humidity;BME280_pressure;Samples;Min_cycle;Max_cycle;Signal;HPM_P1;HPM_P2
2021/08/03 00:01:07;;;;;;;15.82;5.78;;;;;;;30.46;38.86;100476.84;5070179;28;20056;-69
2021/08/03 00:03:37;;;;;;;12.50;5.78;;;;;;;30.42;39.00;100479.91;5070060;28;20036;-70
2021/08/03 00:06:10;;;;;;;14.35;7.25;;;;;;;30.40;39.00;100487.31;5070515;28;20450;-69
2021/08/03 00:08:42;;;;;;;10.75;5.32;;;;;;;30.37;39.17;100482.09;5069963;28;20094;-70
2021/08/03 00:11:12;;;;;;;12.38;6.05;;;;;;;30.31;39.16;100482.53;5070163;28;20082;-68
2021/08/03 00:13:40;;;;;;;12.13;5.93;;;;;;;30.36;39.14;100485.78;5050811;28;20498;-69
2021/08/03 00:16:12;;;;;;;15.07;5.80;;;;;;;30.33;39.18;100477.81;5050557;28;20049;-70
2021/08/03 00:18:41;;;;;;;17.30;5.60;;;;;;;30.29;39.20;100482.63;5049954;28;20565;-70
2021/08/03 00:21:11;;;;;;;15.38;6.82;;;;;;;30.17;39.41;100474.47;5050595;28;20048;-69
2021/08/03 00:23:42;;;;;;;14.73;6.20;;;;;;;30.20;39.34;100479.66;5070173;28;20078;-69
2021/08/03 00:26:12;;;;;;;16.25;5.90;;;;;;;30.16;39.71;100486.31;5070146;28;20040;-70
2021/08/03 00:28:40;;;;;;;12.70;5.85;;;;;;;30.09;39.65;100484.03;5070941;28;20041;-69
2021/08/03 00:31:09;;;;;;;17.17;6.25;;;;;;;30.12;39.58;100480.25;5069835;28;20509;-69
2021/08/03 00:33:39;;;;;;;13.50;5.75;;;;;;;30.06;39.79;100480.66;5069436;28;20044;-69
2021/08/03 00:36:06;;;;;;;15.45;5.63;;;;;;;30.04;39.82;100480.78;5050126;28;20053;-69
2021/08/03 00:38:33;;;;;;;11.88;5.82;;;;;;;30.00;40.17;100479.22;5055330;28;20055;-69
2021/08/03 00:41:04;;;;;;;14.75;5.38;;;;;;;29.93;40.29;100468.88;5070382;28;20056;-71
2021/08/03 00:43:32;;;;;;;13.77;6.20;;;;;;;29.88;40.02;100469.16;5070253;28;20516;-69
2021/08/03 00:45:59;;;;;;;12.18;6.18;;;;;;;29.99;39.63;100477.50;5069859;28;20036;-69
2021/08/03 00:48:28;;;;;;;17.48;6.38;;;;;;;30.00;40.07;100476.50;5069831;28;20040;-70
2021/08/03 00:50:55;;;;;;;12.45;6.22;;;;;;;29.99;40.03;100473.91;5070099;28;20052;-69
2021/08/03 00:53:23;;;;;;;15.25;6.15;;;;;;;29.93;40.07;100474.34;5069643;28;20068;-69
2021/08/03 00:55:51;;;;;;;17.80;6.57;;;;;;;29.80;40.47;100468.78;5069913;28;20036;-69
2021/08/03 00:58:18;;;;;;;14.93;6.25;;;;;;;29.80;40.15;100471.53;5070093;28;20051;-69
2021/08/03 01:00:46;;;;;;;16.33;6.40;;;;;;;29.78;40.42;100467.19;5068929;28;20520;-69
2021/08/03 01:03:13;;;;;;;18.08;6.82;;;;;;;29.76;40.10;100471.84;5069851;28;20040;-67
2021/08/03 01:05:59;;;;;;;16.25;6.47;;;;;;;29.76;40.16;100472.72;5070357;28;20115;-69
2021/08/03 01:08:36;;;;;;;12.25;6.47;;;;;;;29.73;40.31;100472.06;5069280;28;20044;-70
2021/08/03 01:11:09;;;;;;;16.42;6.60;;;;;;;29.70;40.40;100478.59;5071272;28;20045;-70
2021/08/03 01:13:47;;;;;;;17.95;6.53;;;;;;;29.73;40.16;100472.06;5073375;28;20056;-69
2021/08/03 01:16:25;;;;;;;15.55;6.45;;;;;;;29.73;39.67;100470.22;5073292;28;20041;-67
2021/08/03 01:19:00;;;;;;;16.35;5.90;;;;;;;29.81;39.77;100469.66;5073823;28;20047;-69
2021/08/03 01:21:44;;;;;;;13.88;6.00;;;;;;;29.87;39.36;100475.56;5073489;28;20437;-69
2021/08/03 01:24:25;;;;;;;13.95;5.95;;;;;;;29.94;38.78;100471.47;5073318;28;20067;-70
2021/08/03 01:27:18;;;;;;;11.13;5.65;;;;;;;30.01;38.71;100471.91;5067014;28;20505;-70
2021/08/03 01:29:49;;;;;;;13.82;5.78;;;;;;;29.99;38.70;100472.06;5071952;28;20567;-69
2021/08/03 01:32:24;;;;;;;15.82;6.68;;;;;;;29.97;38.71;100482.19;5073032;28;20048;-69
2021/08/03 01:34:52;;;;;;;14.40;6.85;;;;;;;29.94;38.63;100476.06;5073151;28;20032;-69
2021/08/03 01:37:22;;;;;;;15.88;5.60;;;;;;;29.97;38.34;100475.84;5056916;28;20126;-69
2021/08/03 01:39:55;;;;;;;18.45;5.75;;;;;;;29.97;38.52;100475.84;5063523;28;20048;-69
2021/08/03 01:42:24;;;;;;;13.88;6.15;;;;;;;29.96;38.15;100472.25;5073001;28;20122;-69
2021/08/03 01:44:54;;;;;;;16.45;6.75;;;;;;;30.01;38.09;100477.38;5073421;28;20043;-69
2021/08/03 01:47:25;;;;;;;15.43;6.35;;;;;;;30.02;38.03;100473.66;5072872;28;20033;-69
2021/08/03 01:49:54;;;;;;;18.60;6.70;;;;;;;29.97;38.05;100470.41;5072178;28;20032;-69
2021/08/03 01:52:22;;;;;;;12.23;5.30;;;;;;;30.01;37.79;100477.38;5072469;28;20410;-69
2021/08/03 01:54:51;;;;;;;15.43;5.88;;;;;;;30.09;37.71;100470.41;5073047;28;20036;-69
2021/08/03 01:57:20;;;;;;;10.82;5.30;;;;;;;30.12;37.78;100479.38;5072090;28;20048;-69
2021/08/03 01:59:49;;;;;;;15.60;6.57;;;;;;;30.18;37.25;100484.38;5072217;28;20047;-69
2021/08/03 02:02:18;;;;;;;12.25;5.70;;;;;;;30.18;37.04;100481.66;5071259;28;20048;-68
2021/08/03 02:04:47;;;;;;;14.05;5.65;;;;;;;30.20;36.97;100490.56;5072568;28;20440;-69
2021/08/03 02:07:16;;;;;;;16.65;5.88;;;;;;;30.19;36.99;100491.56;5068349;28;20401;-68
2021/08/03 02:09:45;;;;;;;16.02;5.55;;;;;;;30.17;36.96;100501.69;5072176;28;20047;-66
2021/08/03 02:12:12;;;;;;;16.52;5.68;;;;;;;30.18;36.76;100501.59;5072994;28;20048;-69
2021/08/03 02:14:45;;;;;;;11.70;6.05;;;;;;;30.21;36.74;100505.94;5072558;28;20043;-69
2021/08/03 02:17:17;;;;;;;11.50;5.78;;;;;;;30.25;36.46;100505.63;5072655;28;20485;-69
2021/08/03 02:19:45;;;;;;;18.17;5.90;;;;;;;30.19;36.85;100507.91;5050853;28;20059;-69
2021/08/03 02:22:13;;;;;;;13.85;5.93;;;;;;;30.17;36.61;100507.16;5054034;28;20039;-69
2021/08/03 02:24:42;;;;;;;14.02;6.57;;;;;;;30.17;36.66;100515.31;5052193;28;20041;-71
2021/08/03 02:27:09;;;;;;;14.63;5.63;;;;;;;30.16;36.22;100514.44;5052806;28;20044;-71
2021/08/03 02:29:41;;;;;;;11.18;5.50;;;;;;;30.22;36.27;100507.69;5052879;28;20052;-69
2021/08/03 02:32:15;;;;;;;15.00;6.13;;;;;;;30.20;36.54;100506.91;5068835;28;20045;-68
2021/08/03 02:34:52;;;;;;;11.27;5.57;;;;;;;30.17;36.74;100508.03;5072374;28;20498;-69
2021/08/03 02:37:27;;;;;;;14.85;5.85;;;;;;;30.21;36.26;100514.97;5072175;28;20036;-68
2021/08/03 02:39:55;;;;;;;13.80;6.13;;;;;;;30.27;36.05;100511.81;5072029;28;20037;-69
2021/08/03 02:42:24;;;;;;;10.95;5.43;;;;;;;30.31;36.14;100513.38;5072256;28;20387;-69
2021/08/03 02:44:54;;;;;;;14.57;5.65;;;;;;;30.26;36.40;100529.16;5070560;28;20044;-69
2021/08/03 02:47:27;;;;;;;26.30;5.75;;;;;;;30.16;36.76;100524.47;5071755;28;20497;-69
2021/08/03 02:50:06;;;;;;;12.15;4.68;;;;;;;30.13;36.34;100533.69;5072088;28;20064;-69
2021/08/03 02:52:37;;;;;;;13.23;5.10;;;;;;;30.23;36.43;100525.78;5071602;28;21017;-69
2021/08/03 02:55:10;;;;;;;11.00;5.63;;;;;;;30.21;36.18;100527.72;5071492;28;20052;-69
2021/08/03 02:57:40;;;;;;;15.00;5.35;;;;;;;30.05;36.44;100527.94;5071867;28;20048;-69
2021/08/03 03:00:08;;;;;;;17.80;6.45;;;;;;;30.02;36.77;100541.75;5067737;28;20064;-69
2021/08/03 03:02:38;;;;;;;12.40;5.47;;;;;;;29.99;36.56;100541.97;5051360;28;20486;-70
2021/08/03 03:05:14;;;;;;;14.90;5.18;;;;;;;29.98;36.81;100543.81;5051480;28;20044;-70
2021/08/03 03:07:43;;;;;;;20.45;5.20;;;;;;;29.96;36.95;100539.44;5051153;28;20047;-69
2021/08/03 03:10:15;;;;;;;12.25;5.40;;;;;;;29.97;36.64;100552.97;5051461;28;20047;-69
2021/08/03 03:12:47;;;;;;;13.50;5.63;;;;;;;29.92;36.93;100551.53;5051422;28;20063;-70
2021/08/03 03:15:18;;;;;;;14.38;5.68;;;;;;;29.85;37.19;100553.78;5058197;28;20041;-68
2021/08/03 03:17:47;;;;;;;13.85;5.40;;;;;;;29.79;37.47;100558.75;5071179;28;20446;-69
2021/08/03 03:20:18;;;;;;;15.90;6.20;;;;;;;29.76;37.80;100562.56;5051950;28;20414;-68
2021/08/03 03:22:48;;;;;;;11.23;5.18;;;;;;;29.74;37.52;100559.03;5051367;28;20060;-69
2021/08/03 03:25:19;;;;;;;12.48;5.07;;;;;;;29.82;37.43;100563.97;5050984;28;20044;-68
2021/08/03 03:27:50;;;;;;;16.35;5.60;;;;;;;29.81;37.32;100556.78;5050885;28;20406;-67
2021/08/03 03:30:18;;;;;;;16.52;5.88;;;;;;;29.77;37.51;100560.69;5052028;28;20033;-68
2021/08/03 03:32:47;;;;;;;19.38;5.97;;;;;;;29.79;37.68;100564.22;5051229;28;20457;-69
2021/08/03 03:35:20;;;;;;;14.35;4.60;;;;;;;29.86;37.53;100566.41;5050447;28;20045;-67
2021/08/03 03:37:50;;;;;;;12.65;5.63;;;;;;;29.88;37.59;100560.84;5051022;28;20041;-69
2021/08/03 03:40:21;;;;;;;16.33;5.55;;;;;;;29.88;37.54;100569.00;5050562;28;20560;-68
2021/08/03 03:42:51;;;;;;;12.80;5.40;;;;;;;29.78;37.76;100566.06;5053325;28;20410;-69
2021/08/03 03:45:19;;;;;;;15.55;6.18;;;;;;;29.75;38.19;100568.09;5069116;28;20504;-70
2021/08/03 03:47:55;;;;;;;12.10;5.18;;;;;;;29.79;38.05;100572.38;5068568;28;20382;-69
2021/08/03 03:50:29;;;;;;;17.17;5.65;;;;;;;29.91;37.39;100569.69;5070694;28;20044;-70
2021/08/03 03:53:05;;;;;;;17.02;5.90;;;;;;;30.07;37.68;100573.13;5070607;28;20067;-69
2021/08/03 03:55:33;;;;;;;14.23;5.95;;;;;;;30.20;37.42;100577.72;5067789;28;20048;-69
2021/08/03 03:58:02;;;;;;;16.27;5.28;;;;;;;30.25;37.58;100572.88;5070458;28;20055;-70
2021/08/03 04:00:31;;;;;;;13.88;5.68;;;;;;;30.30;37.45;100571.56;5067994;28;20048;-68
2021/08/03 04:03:00;;;;;;;15.68;4.63;;;;;;;30.43;37.30;100566.13;5070242;28;20043;-69
2021/08/03 04:05:30;;;;;;;17.20;5.85;;;;;;;30.62;37.11;100566.59;5069905;28;20056;-69
2021/08/03 04:07:58;;;;;;;13.27;5.07;;;;;;;30.73;36.77;100566.72;5070737;28;20044;-69
2021/08/03 04:10:33;;;;;;;12.73;5.38;;;;;;;30.73;37.71;100569.44;5066163;28;20060;-69
2021/08/03 04:13:00;;;;;;;14.57;5.28;;;;;;;30.70;37.74;100568.78;5050800;28;20033;-69
2021/08/03 04:15:28;;;;;;;12.57;5.43;;;;;;;30.69;37.89;100567.91;5050276;28;20065;-70
2021/08/03 04:17:56;;;;;;;11.70;4.95;;;;;;;30.76;38.01;100577.41;5050282;28;20033;-69
2021/08/03 04:20:24;;;;;;;10.90;5.35;;;;;;;30.86;37.90;100564.84;5050291;28;20406;-70
2021/08/03 04:22:53;;;;;;;12.65;5.40;;;;;;;31.01;37.98;100572.91;5050450;28;20037;-68
2021/08/03 04:25:20;;;;;;;17.73;5.10;;;;;;;31.13;37.79;100566.59;5054976;28;20045;-70
2021/08/03 04:27:48;;;;;;;14.52;6.22;;;;;;;31.24;37.70;100574.88;5070336;28;20049;-68
2021/08/03 04:30:17;;;;;;;16.30;5.80;;;;;;;31.41;38.07;100573.63;5067677;28;20056;-67
2021/08/03 04:32:45;;;;;;;18.42;5.75;;;;;;;31.54;37.97;100575.34;5069942;28;20045;-67
2021/08/03 04:35:13;;;;;;;11.70;5.38;;;;;;;31.67;38.00;100575.31;5070821;28;20047;-69
2021/08/03 04:37:41;;;;;;;15.60;5.43;;;;;;;31.83;38.08;100572.31;5069939;28;20041;-69
2021/08/03 04:40:13;;;;;;;15.23;5.55;;;;;;;31.96;37.60;100568.53;5070311;28;20036;-69
2021/08/03 04:42:40;;;;;;;17.65;5.55;;;;;;;32.10;37.38;100578.38;5067572;28;20048;-69
2021/08/03 04:45:09;;;;;;;13.32;6.03;;;;;;;32.23;37.48;100583.81;5069841;28;20047;-69
2021/08/03 04:47:41;;;;;;;18.48;5.70;;;;;;;32.37;37.82;100570.81;5074229;28;20040;-68
2021/08/03 04:50:11;;;;;;;24.70;6.53;;;;;;;32.48;37.12;100582.78;5073624;28;20048;-69
2021/08/03 04:52:38;;;;;;;18.23;5.63;;;;;;;32.63;37.06;100576.06;5072330;28;20040;-69
2021/08/03 04:55:07;;;;;;;18.67;5.30;;;;;;;32.81;36.75;100588.34;5072595;28;20036;-69
2021/08/03 04:57:38;;;;;;;13.50;5.88;;;;;;;33.02;37.01;100592.06;5068024;28;20044;-69
2021/08/03 05:00:07;;;;;;;17.42;5.18;;;;;;;33.17;36.92;100598.16;5056080;28;20487;-69
2021/08/03 05:02:35;;;;;;;17.33;5.13;;;;;;;33.32;36.67;100588.75;5054098;28;20045;-69
2021/08/03 05:05:03;;;;;;;23.05;6.63;;;;;;;33.45;36.56;100599.56;5053683;28;20044;-69
2021/08/03 05:07:30;;;;;;;15.32;5.25;;;;;;;33.61;36.51;100605.50;5053981;28;20041;-69
2021/08/03 05:10:01;;;;;;;18.40;5.45;;;;;;;33.88;36.46;100602.34;5053769;28;20041;-69
2021/08/03 05:12:30;;;;;;;15.73;5.07;;;;;;;34.08;35.79;100597.91;5054503;28;20043;-69
2021/08/03 05:15:00;;;;;;;22.20;5.13;;;;;;;34.22;35.46;100597.66;5053235;28;20170;-69
2021/08/03 05:17:29;;;;;;;12.55;4.70;;;;;;;34.36;34.60;100609.16;5053291;28;20060;-69
2021/08/03 05:19:57;;;;;;;14.90;5.20;;;;;;;34.47;34.38;100602.75;5052500;28;20037;-69
2021/08/03 05:22:25;;;;;;;15.25;4.85;;;;;;;34.68;34.38;100611.84;5053026;28;20044;-69
2021/08/03 05:24:52;;;;;;;15.63;4.50;;;;;;;34.94;33.69;100609.56;5052834;28;20052;-69
2021/08/03 05:27:20;;;;;;;13.13;5.25;;;;;;;35.05;33.38;100605.91;5061898;28;20410;-67
2021/08/03 05:29:47;;;;;;;13.27;5.25;;;;;;;35.22;33.64;100612.66;5072753;28;20048;-68
2021/08/03 05:32:16;;;;;;;20.30;5.10;;;;;;;35.45;33.01;100604.03;5068811;28;20036;-68
2021/08/03 05:34:43;;;;;;;14.05;4.60;;;;;;;35.77;32.48;100608.53;5073138;28;20044;-69
2021/08/03 05:37:10;;;;;;;16.15;4.80;;;;;;;36.08;31.81;100618.41;5073109;28;20432;-69
2021/08/03 05:39:37;;;;;;;14.07;5.00;;;;;;;36.23;30.76;100613.38;5073536;28;20040;-69
2021/08/03 05:42:06;;;;;;;14.48;5.15;;;;;;;36.41;30.91;100611.63;5067575;28;20044;-69
2021/08/03 05:44:34;;;;;;;20.48;4.57;;;;;;;36.64;30.03;100612.16;5052819;28;20052;-70
2021/08/03 05:47:02;;;;;;;13.43;5.15;;;;;;;36.80;28.63;100609.72;5052536;28;20041;-70
2021/08/03 05:49:31;;;;;;;15.50;4.50;;;;;;;36.89;27.75;100608.81;5054111;28;20049;-69
2021/08/03 05:52:00;;;;;;;18.65;5.22;;;;;;;37.08;27.19;100617.03;5058024;28;20048;-70
2021/08/03 05:54:27;;;;;;;16.58;5.15;;;;;;;37.22;26.78;100609.34;5052699;28;20546;-70
2021/08/03 05:56:54;;;;;;;15.90;5.70;;;;;;;37.44;26.62;100617.19;5055080;28;20052;-70
2021/08/03 05:59:22;;;;;;;12.05;4.13;;;;;;;37.64;26.37;100609.72;5068990;28;20040;-69
2021/08/03 06:01:49;;;;;;;16.15;5.05;;;;;;;37.72;26.52;100613.44;5064014;28;20335;-69
2021/08/03 06:04:16;;;;;;;19.52;4.90;;;;;;;37.94;26.46;100614.91;5054421;28;20048;-68
2021/08/03 06:06:46;;;;;;;14.70;4.78;;;;;;;38.16;25.84;100611.69;5052676;28;20053;-69
2021/08/03 06:09:16;;;;;;;17.88;4.68;;;;;;;38.34;25.96;100613.56;5052303;28;20045;-69
2021/08/03 06:11:46;;;;;;;15.20;4.60;;;;;;;38.55;25.72;100615.00;5052700;28;20055;-70
2021/08/03 06:14:19;;;;;;;20.25;4.53;;;;;;;38.77;25.16;100610.88;5052860;28;20437;-69
2021/08/03 06:16:52;;;;;;;17.02;5.55;;;;;;;38.87;25.13;100608.00;5051619;28;20041;-70
2021/08/03 06:19:20;;;;;;;15.63;4.80;;;;;;;38.94;25.19;100606.34;5053533;28;20041;-69
2021/08/03 06:21:50;;;;;;;14.80;4.68;;;;;;;39.14;24.49;100596.81;5054506;28;20068;-70
2021/08/03 06:24:18;;;;;;;18.88;4.72;;;;;;;39.22;24.18;100599.63;5051495;28;20517;-70
2021/08/03 06:26:46;;;;;;;15.07;4.57;;;;;;;39.22;23.82;100610.66;5058243;28;20051;-68
2021/08/03 06:29:15;;;;;;;14.65;4.07;;;;;;;39.19;22.88;100608.22;5066527;28;20557;-69
2021/08/03 06:31:43;;;;;;;18.25;5.20;;;;;;;39.24;23.31;100608.63;5066801;28;20036;-68
2021/08/03 06:34:13;;;;;;;18.20;5.07;;;;;;;39.33;22.46;100606.72;5059463;28;20056;-69
2021/08/03 06:36:40;;;;;;;18.63;4.60;;;;;;;39.36;22.66;100607.31;5067318;28;20436;-70
2021/08/03 06:39:09;;;;;;;19.13;4.40;;;;;;;39.58;22.76;100605.88;5069541;28;20033;-68
2021/08/03 06:41:40;;;;;;;19.23;4.88;;;;;;;39.63;22.47;100597.94;5059723;28;20044;-67
2021/08/03 06:44:13;;;;;;;12.48;4.20;;;;;;;39.69;22.53;100607.44;5059360;28;20048;-68
2021/08/03 06:46:45;;;;;;;13.13;3.60;;;;;;;39.60;22.40;100606.53;5068172;28;20041;-68
2021/08/03 06:49:15;;;;;;;13.85;4.20;;;;;;;39.66;22.34;100605.88;5071412;28;20037;-68
2021/08/03 06:51:44;;;;;;;16.27;5.45;;;;;;;39.72;22.29;100598.78;5063508;28;20132;-67
2021/08/03 06:54:14;;;;;;;17.20;5.68;;;;;;;39.80;22.13;100599.72;5053544;28;20048;-67
2021/08/03 06:56:50;;;;;;;17.02;4.95;;;;;;;39.91;22.06;100600.47;5053874;28;20040;-67
2021/08/03 06:59:19;;;;;;;18.30;4.57;;;;;;;40.02;21.96;100612.06;5053979;28;20037;-68
2021/08/03 07:01:48;;;;;;;19.65;4.38;;;;;;;40.11;21.80;100607.38;5062427;28;20406;-66
2021/08/03 07:04:25;;;;;;;18.98;4.80;;;;;;;40.19;21.75;100588.03;5069651;28;20051;-67
2021/08/03 07:06:57;;;;;;;18.02;4.28;;;;;;;40.27;21.71;100595.50;5070296;28;20532;-68
2021/08/03 07:09:28;;;;;;;18.05;4.32;;;;;;;40.32;21.50;100602.25;5070106;28;20037;-67
2021/08/03 07:11:56;;;;;;;18.90;4.80;;;;;;;40.31;21.25;100605.19;5066819;28;20048;-68
2021/08/03 07:14:25;;;;;;;16.13;4.22;;;;;;;40.35;21.21;100604.69;5070519;28;20488;-67
2021/08/03 07:16:54;;;;;;;18.88;4.90;;;;;;;40.44;21.22;100609.16;5068242;28;20068;-67
2021/08/03 07:19:23;;;;;;;20.27;4.43;;;;;;;40.56;21.19;100615.25;5069652;28;20048;-67
2021/08/03 07:21:51;;;;;;;18.80;4.88;;;;;;;40.75;21.30;100617.69;5063095;28;20045;-68
2021/08/03 07:24:19;;;;;;;19.83;4.80;;;;;;;40.89;21.15;100622.53;5062998;28;20060;-68
2021/08/03 07:26:48;;;;;;;20.52;4.75;;;;;;;41.07;20.71;100621.44;5059689;28;20036;-67
2021/08/03 07:29:16;;;;;;;13.65;4.13;;;;;;;40.94;20.53;100617.31;5064868;28;20057;-66
2021/08/03 07:31:43;;;;;;;20.35;4.43;;;;;;;40.94;20.62;100628.41;5047879;28;20053;-68
2021/08/03 07:34:11;;;;;;;18.15;4.35;;;;;;;40.86;20.59;100622.84;5059610;28;20045;-68
2021/08/03 07:36:39;;;;;;;14.65;4.78;;;;;;;40.97;20.60;100624.38;5063495;28;20052;-68
2021/08/03 07:39:07;;;;;;;16.05;4.85;;;;;;;41.08;20.68;100625.97;5050446;28;20049;-68
2021/08/03 07:41:35;;;;;;;20.15;5.00;;;;;;;41.13;20.95;100631.84;5051236;28;20045;-68
2021/08/03 07:44:05;;;;;;;14.88;5.30;;;;;;;41.31;20.54;100621.38;5069169;28;20043;-68
2021/08/03 07:46:34;;;;;;;15.63;3.72;;;;;;;41.17;20.34;100627.66;5069920;28;20572;-68
2021/08/03 07:49:03;;;;;;;20.90;4.93;;;;;;;41.20;20.37;100632.88;5069832;28;20037;-68
2021/08/03 07:51:31;;;;;;;20.45;4.65;;;;;;;41.36;20.52;100630.03;5069801;28;20044;-69
2021/08/03 07:53:58;;;;;;;20.45;4.13;;;;;;;41.45;20.65;100628.97;5066440;28;20052;-69
2021/08/03 07:56:26;;;;;;;18.00;4.45;;;;;;;41.57;20.35;100633.09;5067960;28;20044;-68
2021/08/03 07:58:53;;;;;;;21.30;4.78;;;;;;;41.44;20.24;100634.69;5069590;28;20036;-68
2021/08/03 08:01:22;;;;;;;16.83;4.20;;;;;;;41.46;19.85;100633.47;5069602;28;20041;-67
2021/08/03 08:03:49;;;;;;;19.98;4.18;;;;;;;41.49;19.78;100627.56;5070189;28;20044;-68
2021/08/03 08:06:17;;;;;;;22.52;4.22;;;;;;;41.64;19.71;100624.91;5069982;28;20037;-68
2021/08/03 08:08:44;;;;;;;19.23;4.78;;;;;;;41.84;19.64;100619.78;5068877;28;20048;-68
2021/08/03 08:11:12;;;;;;;18.05;4.25;;;;;;;42.01;19.66;100627.03;5069520;28;20059;-69
2021/08/03 08:13:39;;;;;;;27.33;5.30;;;;;;;42.15;19.66;100617.88;5070099;28;20047;-69
2021/08/03 08:16:07;;;;;;;19.50;5.05;;;;;;;42.10;19.81;100615.66;5069811;28;20041;-69
2021/08/03 08:18:36;;;;;;;21.05;4.45;;;;;;;42.21;19.69;100619.06;5068188;28;20045;-69
2021/08/03 08:21:04;;;;;;;17.70;4.25;;;;;;;42.25;19.28;100612.09;5070087;28;20043;-69
2021/08/03 08:23:31;;;;;;;23.70;4.07;;;;;;;42.30;19.28;100612.41;5065219;28;20053;-68
2021/08/03 08:25:59;;;;;;;20.05;4.35;;;;;;;42.37;19.13;100617.06;5069630;28;20036;-69
2021/08/03 08:28:27;;;;;;;18.20;4.15;;;;;;;42.38;18.87;100602.13;5068788;28;20094;-69
2021/08/03 08:30:55;;;;;;;14.48;3.95;;;;;;;42.45;18.75;100600.34;5062033;28;20053;-69
2021/08/03 08:33:22;;;;;;;12.98;4.35;;;;;;;42.53;18.90;100604.97;5048964;28;20045;-69
2021/08/03 08:35:51;;;;;;;18.67;4.90;;;;;;;42.48;18.46;100601.84;5050744;28;20045;-69
2021/08/03 08:38:18;;;;;;;19.73;5.10;;;;;;;42.36;18.69;100595.88;5057291;28;20033;-68
2021/08/03 08:40:46;;;;;;;16.25;4.22;;;;;;;42.44;18.50;100606.06;5069882;28;20055;-67
2021/08/03 08:43:15;;;;;;;15.05;4.50;;;;;;;42.50;18.53;100595.06;5068831;28;20037;-68
2021/08/03 08:45:44;;;;;;;14.48;4.13;;;;;;;42.53;18.69;100608.59;5063860;28;20041;-69
2021/08/03 08:48:12;;;;;;;17.25;4.50;;;;;;;42.66;18.61;100604.31;5069106;28;20065;-69
2021/08/03 08:50:40;;;;;;;18.95;4.47;;;;;;;42.75;18.59;100592.94;5069183;28;20040;-69
2021/08/03 08:53:09;;;;;;;18.33;4.45;;;;;;;42.71;18.67;100597.13;5068426;28;20509;-71
2021/08/03 08:55:36;;;;;;;22.92;5.60;;;;;;;42.63;18.67;100588.88;5067162;28;20498;-70
2021/08/03 08:58:04;;;;;;;14.30;4.63;;;;;;;42.58;18.74;100590.50;5050589;28;20131;-71
2021/08/03 09:00:31;;;;;;;17.63;4.22;;;;;;;42.63;18.52;100585.22;5068498;28;20122;-70
2021/08/03 09:02:58;;;;;;;22.80;4.82;;;;;;;42.78;18.61;100581.47;5059780;28;20051;-69
2021/08/03 09:05:32;;;;;;;15.55;4.53;;;;;;;42.82;18.61;100573.59;5068667;28;20052;-70
2021/08/03 09:08:01;;;;;;;18.90;4.60;;;;;;;42.80;18.67;100578.50;5069406;28;20045;-69
2021/08/03 09:10:32;;;;;;;17.17;4.53;;;;;;;42.83;18.56;100581.75;5056624;28;20049;-70
2021/08/03 09:13:02;;;;;;;23.40;5.18;;;;;;;42.75;18.23;100567.94;5066725;28;20040;-69
2021/08/03 09:15:30;;;;;;;14.75;4.43;;;;;;;42.65;18.51;100559.00;5068422;28;20073;-70
2021/08/03 09:18:15;;;;;;;16.73;4.72;;;;;;;42.67;18.50;100578.28;5069016;28;20525;-70
2021/08/03 09:20:44;;;;;;;20.20;4.90;;;;;;;42.65;18.44;100577.59;5069561;28;20040;-70
2021/08/03 09:23:12;;;;;;;16.73;4.38;;;;;;;42.71;18.65;100562.94;5069046;28;20047;-70
2021/08/03 09:25:57;;;;;;;16.73;4.60;;;;;;;42.74;18.77;100566.22;5067395;28;20037;-70
2021/08/03 09:28:25;;;;;;;17.27;4.72;;;;;;;42.66;19.03;100576.53;5065601;28;20045;-70
2021/08/03 09:30:54;;;;;;;12.55;4.50;;;;;;;42.64;18.96;100561.97;5068627;28;20040;-70
2021/08/03 09:33:23;;;;;;;14.73;4.43;;;;;;;42.57;18.90;100570.19;5072345;28;20040;-69
2021/08/03 09:35:51;;;;;;;15.15;4.70;;;;;;;42.61;18.76;100574.31;5072147;28;20501;-69
2021/08/03 09:38:21;;;;;;;11.23;5.13;;;;;;;42.73;18.96;100566.44;5072240;28;20040;-69
2021/08/03 09:40:52;;;;;;;10.15;4.65;;;;;;;42.80;18.43;100556.28;5072434;28;20037;-70
2021/08/03 09:43:28;;;;;;;12.25;4.60;;;;;;;42.85;18.25;100567.69;5073085;28;20106;-70
2021/08/03 09:45:58;;;;;;;16.42;4.35;;;;;;;42.89;18.39;100558.75;5071846;28;20057;-70
2021/08/03 09:48:28;;;;;;;19.00;5.03;;;;;;;42.97;18.21;100557.81;5072320;28;20053;-70
2021/08/03 09:50:58;;;;;;;15.85;5.03;;;;;;;43.00;18.12;100562.13;5068637;28;20045;-71
2021/08/03 09:53:40;;;;;;;20.45;4.88;;;;;;;42.83;18.14;100542.84;5064168;28;20041;-69
2021/08/03 09:56:11;;;;;;;18.52;5.15;;;;;;;42.81;18.26;100561.63;5059302;28;20048;-70
2021/08/03 09:58:56;;;;;;;17.88;5.13;;;;;;;42.75;18.29;100559.59;5058726;28;20037;-69
2021/08/03 10:01:25;;;;;;;17.35;4.07;;;;;;;42.61;18.57;100543.75;5054222;28;20132;-69
2021/08/03 10:03:54;;;;;;;18.73;4.55;;;;;;;42.48;18.70;100541.63;5069552;28;20037;-70
2021/08/03 10:06:22;;;;;;;19.17;4.93;;;;;;;42.49;18.55;100554.47;5069921;28;20040;-69
2021/08/03 10:08:52;;;;;;;21.88;4.80;;;;;;;42.42;18.64;100542.38;5067959;28;20123;-69
2021/08/03 10:11:22;;;;;;;19.38;5.32;;;;;;;42.41;18.57;100546.19;5070808;28;20048;-70
2021/08/03 10:13:51;;;;;;;13.50;4.60;;;;;;;42.27;18.53;100552.56;5069553;28;20409;-69
2021/08/03 10:16:19;;;;;;;14.48;5.03;;;;;;;42.32;18.65;100550.13;5059502;28;20041;-70
2021/08/03 10:18:48;;;;;;;17.98;4.90;;;;;;;42.51;18.44;100551.50;5066698;28;20059;-68
2021/08/03 10:21:35;;;;;;;18.80;5.38;;;;;;;42.59;18.44;100550.56;5068459;28;20044;-67
2021/08/03 10:24:12;;;;;;;27.25;5.22;;;;;;;42.51;18.33;100544.03;5064027;28;20505;-70
2021/08/03 10:26:41;;;;;;;24.90;5.25;;;;;;;42.35;18.48;100554.41;5068893;28;20097;-69
2021/08/03 10:29:25;;;;;;;25.73;5.45;;;;;;;42.30;18.09;100554.09;5070776;28;20841;-69
2021/08/03 10:31:53;;;;;;;15.93;4.82;;;;;;;42.24;18.54;100549.28;5070475;28;20068;-69
2021/08/03 10:34:59;;;;;;;22.25;5.57;;;;;;;42.29;18.72;100544.88;5070642;28;20036;-69
2021/08/03 10:37:27;;;;;;;16.45;5.07;;;;;;;42.13;18.85;100548.69;5065997;28;20044;-70
2021/08/03 10:39:55;;;;;;;15.30;4.93;;;;;;;42.08;19.22;100555.81;5070605;28;20041;-69
2021/08/03 10:42:26;;;;;;;19.60;5.53;;;;;;;42.05;18.99;100553.44;5066465;28;20087;-69
2021/08/03 10:44:57;;;;;;;17.02;4.55;;;;;;;42.01;18.96;100538.22;5062850;28;20049;-69
2021/08/03 10:47:44;;;;;;;16.27;5.60;;;;;;;42.03;18.88;100530.53;5069869;28;20238;-69
2021/08/03 10:50:14;;;;;;;18.55;4.13;;;;;;;42.12;18.76;100526.66;5066782;28;20456;-70
2021/08/03 10:53:04;;;;;;;15.85;5.40;;;;;;;42.14;18.51;100521.81;5065252;28;20036;-70
2021/08/03 10:55:34;;;;;;;19.67;5.25;;;;;;;42.21;18.52;100531.06;5062946;28;20298;-70
2021/08/03 10:58:38;;;;;;;16.50;4.68;;;;;;;42.33;18.28;100532.41;5061611;28;20060;-69
2021/08/03 11:01:07;;;;;;;17.63;5.03;;;;;;;42.31;18.25;100528.94;5060677;28;20055;-71
2021/08/03 11:03:47;;;;;;;16.33;4.93;;;;;;;42.24;18.28;100519.59;5066760;28;20045;-70
2021/08/03 11:06:47;;;;;;;21.00;4.78;;;;;;;42.30;18.16;100515.22;5056678;28;20049;-70
2021/08/03 11:09:35;;;;;;;19.02;5.40;;;;;;;42.37;18.14;100521.78;5059648;28;20049;-70
2021/08/03 11:12:34;;;;;;;21.55;5.70;;;;;;;42.36;18.27;100520.91;5061583;28;20067;-70
2021/08/03 11:15:41;;;;;;;19.98;4.72;;;;;;;42.54;18.37;100523.34;5061758;28;20053;-70
2021/08/03 11:18:15;;;;;;;18.10;4.80;;;;;;;42.69;18.22;100524.22;5061732;28;20068;-70
2021/08/03 11:21:11;;;;;;;23.35;6.00;;;;;;;42.80;18.02;100536.84;5063612;28;20503;-70
2021/08/03 11:24:05;;;;;;;16.50;4.47;;;;;;;42.71;18.15;100507.38;5065520;28;20130;-70
2021/08/03 11:26:38;;;;;;;14.73;4.45;;;;;;;42.72;18.16;100534.13;5063601;28;20052;-70
2021/08/03 11:29:07;;;;;;;;;;;;;;;42.82;18.24;100529.16;5065571;28;20481;-70
2021/08/03 11:31:47;;;;;;;17.95;5.82;;;;;;;42.99;17.92;100532.63;5065645;28;19921;-70
2021/08/03 11:34:19;;;;;;;15.70;4.40;;;;;;;42.99;17.92;100527.91;5063276;28;20041;-71